Nearby METAR Reports

 

KSJC - San Jose, California, USA
Distance from station: NØ 14km
Oppdatert: 27/05/2020 23:53
Few Clouds
Few Clouds
 Vind fra NNV
Vind: NNV 20 km/h
Temperatur: 33°C
Duggpunkt: 13°C
Fuktighet: 30%
Barometer: 1010.8 hPa
Clouds: Few Clouds
Visibility: 16 km
Cloud details: Few Clouds 2286 m
2020/05/27 21:53 KSJC 272153Z 33011KT 10SM FEW075 33/13 A2985 RMK AO2 SLP106 T03330128
KNUQ - Moffett Nas/Mtn, California, USA
Distance from station: N 14km
Oppdatert: 27/05/2020 15:55
NOT Current
Klart
Klart
 Vind fra calm
Vind: Stille
Temperatur: 20°C
Duggpunkt: 15°C
Fuktighet: 73%
Barometer: 1011.9 hPa
Clouds: Klart
Visibility: 14 km
2020/05/27 13:55 KNUQ 271355Z AUTO 00000KT 9SM CLR 20/15 A2988 RMK AO2
 
KPAO - Palo Alto, California, USA
Distance from station: NNV 23km
Oppdatert: 27/05/2020 23:47
Klart
Klart
 Vind fra NNV
Vind: NNV 31 km/h
Temperatur: 26°C
Duggpunkt: 16°C
Fuktighet: 54%
Barometer: 1011.2 hPa
Clouds: Klart
Visibility: 16 km
2020/05/27 21:47 KPAO 272147Z 34017KT 10SM SKC 26/16 A2986
KRHV - San Jose/Reid, California, USA
Distance from station: ØNØ 19km
Oppdatert: 27/05/2020 23:50
Klart
Klart
 Vind fra VNV
Vind: VNV 22 km/h, Vindkast: 31 km/h
Temperatur: 35°C
Duggpunkt: 14°C
Fuktighet: 28%
Barometer: 1010.8 hPa
Clouds: Klart
Visibility: 16 km
2020/05/27 21:50 KRHV 272150Z 30012G17KT 10SM SKC 35/14 A2985
 
KOAK - Oakland, California, USA
Distance from station: NNV 50km
Oppdatert: 27/05/2020 23:53
Few Clouds
Few Clouds
 Vind fra VNV
Vind: VNV 28 km/h
Temperatur: 25°C
Duggpunkt: 13°C
Fuktighet: 47%
Barometer: 1011.9 hPa
Clouds: Few Clouds
Visibility: 16 km
Cloud details: Few Clouds 6096 m
2020/05/27 21:53 KOAK 272153Z 29015KT 10SM FEW200 25/13 A2988 RMK AO2 SLP117 T02500128
KSQL - San Carlos Airpo, California, USA
Distance from station: NV 34km
Oppdatert: 27/05/2020 23:47
Klart
Klart
 Vind fra N
Vind: N 28 km/h
Temperatur: 31°C
Duggpunkt: 15°C
Fuktighet: 38%
Barometer: 1011.5 hPa
Clouds: Klart
Visibility: 16 km
2020/05/27 21:47 KSQL 272147Z 35015KT 10SM SKC 31/15 A2987
 
KSFO - San Francisco, California, USA
Distance from station: NV 49km
Oppdatert: 27/05/2020 23:56
Few Clouds
Few Clouds
 Vind fra VNV
Vind: VNV 35 km/h
Temperatur: 22°C
Duggpunkt: 11°C
Fuktighet: 50%
Barometer: 1011.9 hPa
Clouds: Few Clouds
Visibility: 16 km
Cloud details: Few Clouds 152 m
Few Clouds 6096 m
2020/05/27 21:56 KSFO 272156Z 30019KT 10SM FEW005 FEW200 22/11 A2988 RMK AO2 PK WND 28028/2129 SLP117 T02170111
KE16 - San Martin, California, USA
Distance from station: ØSØ 43km
Oppdatert: 27/05/2020 23:45
Klart
Klart
 Vind fra N
Vind: N 11 km/h
Temperatur: 38°C
Duggpunkt: 10°C
Fuktighet: 18%
Barometer: 1010.5 hPa
Clouds: Klart
Visibility: 16 km
2020/05/27 21:45 KE16 272145Z AUTO 35006KT 10SM CLR 38/10 A2984 RMK AO2
 
KWVI - Watsonville, California, USA
Distance from station: SSØ 44km
Oppdatert: 27/05/2020 23:53
Klart
Klart
 Vind fra SV
Vind: SV 15 km/h
Temperatur: 27°C
Heat Index: 27°C
Duggpunkt: 14°C
Fuktighet: 45%
Barometer: 1012.2 hPa
Clouds: Klart
Visibility: 16 km
2020/05/27 21:53 KWVI 272153Z AUTO 22008KT 10SM CLR 27/14 A2989 RMK AO2 SLP121 T02670139
KHAF - Half Moon Bay, California, USA
Distance from station: VNV 50km
Oppdatert: 27/05/2020 23:55
Klart
Klart
 Vind fra NV
Vind: NV 26 km/h
Temperatur: 15°C
Duggpunkt: 12°C
Fuktighet: 82%
Barometer: 1013.9 hPa
Clouds: Klart
Visibility: 14 km
2020/05/27 21:55 KHAF 272155Z AUTO 32014KT 9SM CLR 15/12 A2994 RMK AO2
 
KHWD - Hayward, California, USA
Distance from station: N 44km
Oppdatert: 27/05/2020 23:54
Klart
Klart
 Vind fra V
Vind: V 26 km/h
Temperatur: 28°C
Heat Index: 27°C
Duggpunkt: 13°C
Fuktighet: 40%
Barometer: 1011.5 hPa
Clouds: Klart
Visibility: 16 km
2020/05/27 21:54 KHWD 272154Z 28014KT 10SM CLR 28/13 A2987 RMK AO2 SLP122 T02780133
KLVK - Livermore, California, USA
Distance from station: NNØ 51km
Oppdatert: 27/05/2020 23:53
Klart
Klart
 Vind fra V
Vind: V 20 km/h
Temperatur: 37°C
Duggpunkt: 7°C
Fuktighet: 16%
Barometer: 1010.5 hPa
Clouds: Klart
Visibility: 16 km
2020/05/27 21:53 KLVK 272153Z 27011KT 10SM CLR 37/07 A2984 RMK AO2 SLP098 T03720067